EWG1CZ LGKV-EDDL
Flight info
| Callsign | EWG1CZ |
|---|---|
| Flight time | 2h 37m |
| Altitude | 36000 |
| Route | XERIS Y94 EVIVI L863 OKANA DCT XENIT DCT BABIT DCT SASAL DCT DEXIT DCT RODIS DCT TESDU DCT AMETU T852 TINSA T854 DOMUX DOMUX1A |
| Aircraft | A320/M-SDE2E3FGIJ1RWXY/HB1 |
Departure
| Time | 2026-05-06 09:38 |
|---|---|
| Airport | Kavala Alexander the Great International Airport (LGKV) |
Arrival
| Time | 2026-05-06 12:15 |
|---|---|
| Airport | Düsseldorf Airport (EDDL) |
| Time | Latitude | Longitude | Altitude | Speed | Heading |
|---|---|---|---|---|---|
| 2026-05-06 09:13 | 40.92112 | 24.62342 | 20 ft | 0 kts | 325° |
| 2026-05-06 09:30 | 40.92106 | 24.62347 | 19 ft | 4 kts | 325° |
| 2026-05-06 09:30 | 40.92084 | 24.62367 | 19 ft | 4 kts | 326° |
| 2026-05-06 09:30 | 40.92061 | 24.62384 | 19 ft | 4 kts | 345° |
| 2026-05-06 09:30 | 40.92035 | 24.62386 | 23 ft | 4 kts | 20° |
| 2026-05-06 09:31 | 40.92014 | 24.62368 | 21 ft | 3 kts | 56° |
| 2026-05-06 09:31 | 40.92020 | 24.62378 | 19 ft | 4 kts | 56° |
| 2026-05-06 09:31 | 40.92031 | 24.62402 | 22 ft | 0 kts | 57° |
| 2026-05-06 09:33 | 40.92048 | 24.62434 | 19 ft | 10 kts | 56° |
| 2026-05-06 09:34 | 40.92085 | 24.62508 | 19 ft | 9 kts | 55° |
| 2026-05-06 09:34 | 40.92128 | 24.62589 | 19 ft | 13 kts | 54° |
| 2026-05-06 09:34 | 40.92125 | 24.62662 | 20 ft | 9 kts | 133° |
| 2026-05-06 09:34 | 40.92063 | 24.62729 | 19 ft | 13 kts | 129° |
| 2026-05-06 09:35 | 40.92090 | 24.62841 | 19 ft | 16 kts | 55° |
| 2026-05-06 09:35 | 40.92154 | 24.62966 | 19 ft | 16 kts | 56° |
| 2026-05-06 09:35 | 40.92213 | 24.63080 | 19 ft | 16 kts | 54° |
| 2026-05-06 09:35 | 40.92290 | 24.63225 | 19 ft | 16 kts | 54° |
| 2026-05-06 09:36 | 40.92283 | 24.63311 | 19 ft | 8 kts | 139° |
| 2026-05-06 09:36 | 40.92219 | 24.63371 | 19 ft | 13 kts | 147° |
| 2026-05-06 09:36 | 40.92199 | 24.63388 | 19 ft | 3 kts | 147° |
| 2026-05-06 09:36 | 40.92184 | 24.63400 | 19 ft | 2 kts | 148° |
| 2026-05-06 09:37 | 40.92155 | 24.63392 | 19 ft | 6 kts | 222° |
| 2026-05-06 09:37 | 40.92120 | 24.63339 | 20 ft | 14 kts | 236° |
| 2026-05-06 09:37 | 40.91932 | 24.62985 | 22 ft | 82 kts | 236° |
| 2026-05-06 09:37 | 40.91490 | 24.62140 | 20 ft | 139 kts | 235° |
| 2026-05-06 09:38 | 40.90873 | 24.60955 | 221 ft | 166 kts | 234° |
| 2026-05-06 09:38 | 40.90214 | 24.59710 | 931 ft | 163 kts | 234° |
| 2026-05-06 09:38 | 40.89535 | 24.58461 | 1451 ft | 175 kts | 233° |
| 2026-05-06 09:38 | 40.88797 | 24.57101 | 1797 ft | 193 kts | 234° |
| 2026-05-06 09:39 | 40.87961 | 24.55602 | 2111 ft | 214 kts | 224° |
| 2026-05-06 09:39 | 40.86633 | 24.54734 | 2696 ft | 218 kts | 184° |
| 2026-05-06 09:39 | 40.85183 | 24.55209 | 3348 ft | 222 kts | 143° |
| 2026-05-06 09:39 | 40.84307 | 24.56859 | 3961 ft | 225 kts | 102° |
| 2026-05-06 09:40 | 40.84466 | 24.58887 | 4591 ft | 227 kts | 61° |
| 2026-05-06 09:40 | 40.85593 | 24.60304 | 5230 ft | 229 kts | 21° |
| 2026-05-06 09:40 | 40.88700 | 24.61116 | 6643 ft | 229 kts | 8° |
| 2026-05-06 09:41 | 40.90323 | 24.61134 | 7074 ft | 245 kts | 347° |
| 2026-05-06 09:41 | 40.91896 | 24.60044 | 7412 ft | 268 kts | 320° |
| 2026-05-06 09:41 | 40.93299 | 24.58347 | 8070 ft | 277 kts | 318° |
| 2026-05-06 09:41 | 40.94716 | 24.56594 | 8888 ft | 280 kts | 317° |
| 2026-05-06 09:42 | 40.96146 | 24.54814 | 9752 ft | 282 kts | 318° |
| 2026-05-06 09:42 | 40.97589 | 24.53025 | 10429 ft | 291 kts | 319° |
| 2026-05-06 09:42 | 40.99180 | 24.51210 | 10652 ft | 313 kts | 322° |
| 2026-05-06 09:42 | 41.00930 | 24.49362 | 11067 ft | 326 kts | 323° |
| 2026-05-06 09:43 | 41.02736 | 24.47511 | 11713 ft | 331 kts | 323° |
| 2026-05-06 09:43 | 41.04546 | 24.45660 | 12413 ft | 334 kts | 323° |
| 2026-05-06 09:43 | 41.06387 | 24.43763 | 13129 ft | 337 kts | 322° |
| 2026-05-06 09:43 | 41.08240 | 24.41835 | 13826 ft | 341 kts | 322° |
| 2026-05-06 09:44 | 41.10109 | 24.39873 | 14477 ft | 343 kts | 322° |
| 2026-05-06 09:44 | 41.11995 | 24.37884 | 15114 ft | 346 kts | 322° |
| 2026-05-06 09:44 | 41.13889 | 24.35884 | 15732 ft | 349 kts | 322° |
| 2026-05-06 09:44 | 41.15773 | 24.33890 | 16355 ft | 351 kts | 321° |
| 2026-05-06 09:45 | 41.17701 | 24.31850 | 16946 ft | 354 kts | 321° |
| 2026-05-06 09:45 | 41.19639 | 24.29799 | 17571 ft | 357 kts | 321° |
| 2026-05-06 09:45 | 41.21594 | 24.27731 | 18156 ft | 360 kts | 321° |
| 2026-05-06 09:45 | 41.23565 | 24.25649 | 18696 ft | 363 kts | 321° |
| 2026-05-06 09:46 | 41.25525 | 24.23578 | 19218 ft | 366 kts | 321° |
| 2026-05-06 09:46 | 41.27531 | 24.21456 | 19764 ft | 368 kts | 321° |
| 2026-05-06 09:46 | 41.29533 | 24.19331 | 20307 ft | 370 kts | 321° |
| 2026-05-06 09:46 | 41.31552 | 24.17183 | 20843 ft | 372 kts | 321° |
| 2026-05-06 09:47 | 41.33589 | 24.15017 | 21371 ft | 375 kts | 321° |
| 2026-05-06 09:47 | 41.35635 | 24.12842 | 21906 ft | 377 kts | 321° |
| 2026-05-06 09:47 | 41.37697 | 24.10648 | 22434 ft | 380 kts | 321° |
| 2026-05-06 09:47 | 41.39739 | 24.08472 | 22947 ft | 382 kts | 321° |
| 2026-05-06 09:48 | 41.41821 | 24.06248 | 23452 ft | 384 kts | 321° |
| 2026-05-06 09:48 | 41.43916 | 24.04014 | 23899 ft | 387 kts | 321° |
| 2026-05-06 09:48 | 41.46025 | 24.01766 | 24315 ft | 388 kts | 321° |
| 2026-05-06 09:48 | 41.48137 | 23.99514 | 24743 ft | 389 kts | 321° |
| 2026-05-06 09:49 | 41.50257 | 23.97252 | 25159 ft | 390 kts | 321° |
| 2026-05-06 09:49 | 41.52374 | 23.94986 | 25573 ft | 391 kts | 321° |
| 2026-05-06 09:49 | 41.54503 | 23.92702 | 25979 ft | 392 kts | 321° |
| 2026-05-06 09:49 | 41.56630 | 23.90422 | 26382 ft | 392 kts | 321° |
| 2026-05-06 09:50 | 41.58765 | 23.88131 | 26781 ft | 393 kts | 321° |
| 2026-05-06 09:50 | 41.60904 | 23.85832 | 27155 ft | 394 kts | 321° |
| 2026-05-06 09:50 | 41.63019 | 23.83557 | 27525 ft | 395 kts | 321° |
| 2026-05-06 09:50 | 41.65166 | 23.81244 | 27914 ft | 396 kts | 321° |
| 2026-05-06 09:51 | 41.67321 | 23.78920 | 28264 ft | 397 kts | 321° |
| 2026-05-06 09:51 | 41.69475 | 23.76592 | 28621 ft | 398 kts | 321° |
| 2026-05-06 09:51 | 41.71641 | 23.74255 | 28963 ft | 399 kts | 321° |
| 2026-05-06 09:51 | 41.73814 | 23.71909 | 29284 ft | 401 kts | 321° |
| 2026-05-06 09:52 | 41.75990 | 23.69554 | 29611 ft | 402 kts | 321° |
| 2026-05-06 09:52 | 41.78144 | 23.67223 | 29925 ft | 403 kts | 321° |
| 2026-05-06 09:52 | 41.80336 | 23.64855 | 30207 ft | 404 kts | 321° |
| 2026-05-06 09:52 | 41.82526 | 23.62486 | 30453 ft | 405 kts | 321° |
| 2026-05-06 09:53 | 41.84733 | 23.60091 | 30692 ft | 407 kts | 321° |
| 2026-05-06 09:53 | 41.86911 | 23.57722 | 30907 ft | 408 kts | 321° |
| 2026-05-06 09:53 | 41.89115 | 23.55321 | 31160 ft | 408 kts | 321° |
| 2026-05-06 09:53 | 41.91316 | 23.52922 | 31474 ft | 407 kts | 321° |
| 2026-05-06 09:54 | 41.93516 | 23.50532 | 31780 ft | 406 kts | 321° |
| 2026-05-06 09:54 | 41.95714 | 23.48144 | 32073 ft | 405 kts | 321° |
| 2026-05-06 09:54 | 41.97906 | 23.45757 | 32372 ft | 404 kts | 321° |
| 2026-05-06 09:54 | 42.00089 | 23.43372 | 32653 ft | 404 kts | 321° |
| 2026-05-06 09:55 | 42.02240 | 23.41019 | 32930 ft | 403 kts | 321° |
| 2026-05-06 09:55 | 42.04412 | 23.38640 | 33232 ft | 402 kts | 321° |
| 2026-05-06 09:55 | 42.06605 | 23.36239 | 33542 ft | 401 kts | 321° |
| 2026-05-06 09:55 | 42.08744 | 23.33893 | 33838 ft | 401 kts | 321° |
| 2026-05-06 09:56 | 42.10904 | 23.31520 | 34135 ft | 400 kts | 321° |
| 2026-05-06 09:56 | 42.13066 | 23.29144 | 34395 ft | 399 kts | 321° |
| 2026-05-06 09:56 | 42.15201 | 23.26802 | 34622 ft | 399 kts | 321° |
| 2026-05-06 09:56 | 42.17352 | 23.24437 | 34830 ft | 399 kts | 321° |
| 2026-05-06 09:57 | 42.19498 | 23.22072 | 35030 ft | 399 kts | 321° |
| 2026-05-06 09:57 | 42.21658 | 23.19689 | 35246 ft | 399 kts | 321° |
| 2026-05-06 09:57 | 42.23807 | 23.17317 | 35451 ft | 399 kts | 320° |
| 2026-05-06 09:57 | 42.25957 | 23.14942 | 35662 ft | 399 kts | 320° |
| 2026-05-06 09:58 | 42.28100 | 23.12573 | 35855 ft | 398 kts | 320° |
| 2026-05-06 09:58 | 42.30226 | 23.10220 | 36026 ft | 399 kts | 320° |
| 2026-05-06 09:58 | 42.34507 | 23.05485 | 36061 ft | 395 kts | 320° |
| 2026-05-06 09:59 | 42.38768 | 23.00764 | 36066 ft | 395 kts | 320° |
| 2026-05-06 09:59 | 42.42995 | 22.96068 | 36073 ft | 395 kts | 320° |
| 2026-05-06 10:00 | 42.47251 | 22.91326 | 36064 ft | 396 kts | 320° |
| 2026-05-06 10:00 | 42.51518 | 22.86556 | 36054 ft | 396 kts | 320° |
| 2026-05-06 10:01 | 42.55748 | 22.81829 | 36050 ft | 396 kts | 320° |
| 2026-05-06 10:01 | 42.60007 | 22.77066 | 36048 ft | 396 kts | 320° |
| 2026-05-06 10:02 | 42.64271 | 22.72288 | 36059 ft | 397 kts | 320° |
| 2026-05-06 10:02 | 42.68511 | 22.67519 | 36045 ft | 397 kts | 320° |
| 2026-05-06 10:03 | 42.72779 | 22.62710 | 36053 ft | 398 kts | 320° |
| 2026-05-06 10:03 | 42.77048 | 22.57895 | 36055 ft | 398 kts | 319° |
| 2026-05-06 10:04 | 42.81286 | 22.53107 | 36055 ft | 398 kts | 319° |
| 2026-05-06 10:04 | 42.85564 | 22.48263 | 36057 ft | 398 kts | 320° |
| 2026-05-06 10:05 | 42.89877 | 22.43497 | 36056 ft | 399 kts | 320° |
| 2026-05-06 10:05 | 42.94194 | 22.38792 | 36051 ft | 399 kts | 320° |
| 2026-05-06 10:06 | 42.98536 | 22.34030 | 36050 ft | 399 kts | 320° |
| 2026-05-06 10:06 | 43.02859 | 22.29244 | 36052 ft | 400 kts | 320° |
| 2026-05-06 10:07 | 43.07148 | 22.24478 | 36048 ft | 400 kts | 320° |
| 2026-05-06 10:07 | 43.11474 | 22.19664 | 36046 ft | 400 kts | 320° |
| 2026-05-06 10:08 | 43.15080 | 22.15651 | 36038 ft | 400 kts | 320° |
| 2026-05-06 10:08 | 43.19408 | 22.10834 | 36028 ft | 401 kts | 320° |
| 2026-05-06 10:09 | 43.23720 | 22.06021 | 36031 ft | 401 kts | 320° |
| 2026-05-06 10:09 | 43.28053 | 22.01179 | 36026 ft | 401 kts | 319° |
| 2026-05-06 10:10 | 43.32392 | 21.96320 | 36027 ft | 402 kts | 319° |
| 2026-05-06 10:10 | 43.36729 | 21.91445 | 36028 ft | 402 kts | 319° |
| 2026-05-06 10:11 | 43.41055 | 21.86582 | 36029 ft | 402 kts | 319° |
| 2026-05-06 10:11 | 43.45368 | 21.81726 | 36030 ft | 402 kts | 319° |
| 2026-05-06 10:12 | 43.49702 | 21.76822 | 36029 ft | 403 kts | 319° |
| 2026-05-06 10:12 | 43.54043 | 21.71904 | 36034 ft | 403 kts | 319° |
| 2026-05-06 10:13 | 43.58353 | 21.67017 | 36034 ft | 403 kts | 319° |
| 2026-05-06 10:13 | 43.62690 | 21.62092 | 36028 ft | 403 kts | 319° |
| 2026-05-06 10:14 | 43.67033 | 21.57160 | 36027 ft | 403 kts | 319° |
| 2026-05-06 10:14 | 43.71336 | 21.52259 | 36025 ft | 404 kts | 319° |
| 2026-05-06 10:15 | 43.75685 | 21.47285 | 36025 ft | 404 kts | 319° |
| 2026-05-06 10:15 | 43.80003 | 21.42353 | 36026 ft | 405 kts | 319° |
| 2026-05-06 10:16 | 43.84350 | 21.37371 | 36026 ft | 405 kts | 319° |
| 2026-05-06 10:16 | 43.88693 | 21.32371 | 36019 ft | 405 kts | 319° |
| 2026-05-06 10:17 | 43.93000 | 21.27408 | 36015 ft | 405 kts | 319° |
| 2026-05-06 10:17 | 43.97340 | 21.22418 | 36013 ft | 405 kts | 319° |
| 2026-05-06 10:18 | 44.01682 | 21.17408 | 36012 ft | 405 kts | 319° |
| 2026-05-06 10:18 | 44.05992 | 21.12419 | 36012 ft | 406 kts | 318° |
| 2026-05-06 10:19 | 44.10334 | 21.07377 | 36014 ft | 406 kts | 318° |
| 2026-05-06 10:19 | 44.14674 | 21.02321 | 36014 ft | 406 kts | 318° |
| 2026-05-06 10:20 | 44.19013 | 20.97266 | 36010 ft | 406 kts | 318° |
| 2026-05-06 10:20 | 44.23317 | 20.92245 | 36005 ft | 406 kts | 318° |
| 2026-05-06 10:21 | 44.27648 | 20.87171 | 36005 ft | 406 kts | 318° |
| 2026-05-06 10:21 | 44.31986 | 20.82085 | 36001 ft | 406 kts | 318° |
| 2026-05-06 10:22 | 44.36328 | 20.77073 | 36007 ft | 407 kts | 319° |
| 2026-05-06 10:22 | 44.40747 | 20.72103 | 36009 ft | 407 kts | 319° |
| 2026-05-06 10:23 | 44.45174 | 20.67119 | 36010 ft | 407 kts | 319° |
| 2026-05-06 10:23 | 44.49582 | 20.62105 | 36007 ft | 408 kts | 319° |
| 2026-05-06 10:24 | 44.53967 | 20.57102 | 36010 ft | 408 kts | 319° |
| 2026-05-06 10:24 | 44.58385 | 20.52050 | 36005 ft | 408 kts | 319° |
| 2026-05-06 10:25 | 44.62763 | 20.47031 | 36008 ft | 409 kts | 319° |
| 2026-05-06 10:25 | 44.67175 | 20.41970 | 36005 ft | 409 kts | 319° |
| 2026-05-06 10:26 | 44.71593 | 20.36893 | 36004 ft | 409 kts | 318° |
| 2026-05-06 10:26 | 44.76004 | 20.31813 | 36003 ft | 409 kts | 318° |
| 2026-05-06 10:27 | 44.80419 | 20.26717 | 35998 ft | 410 kts | 318° |
| 2026-05-06 10:27 | 44.84800 | 20.21653 | 35993 ft | 410 kts | 318° |
| 2026-05-06 10:28 | 44.89219 | 20.16532 | 35994 ft | 410 kts | 318° |
| 2026-05-06 10:28 | 44.93609 | 20.11435 | 35993 ft | 410 kts | 318° |
| 2026-05-06 10:29 | 44.98029 | 20.06295 | 35991 ft | 410 kts | 318° |
| 2026-05-06 10:29 | 45.02418 | 20.01170 | 35992 ft | 411 kts | 318° |
| 2026-05-06 10:30 | 45.06831 | 19.96008 | 35994 ft | 411 kts | 318° |
| 2026-05-06 10:30 | 45.11246 | 19.90834 | 35995 ft | 412 kts | 318° |
| 2026-05-06 10:31 | 45.15635 | 19.85680 | 35986 ft | 412 kts | 318° |
| 2026-05-06 10:31 | 45.20058 | 19.80487 | 35987 ft | 412 kts | 318° |
| 2026-05-06 10:32 | 45.24456 | 19.75292 | 35981 ft | 413 kts | 318° |
| 2026-05-06 10:32 | 45.28880 | 19.70059 | 35984 ft | 413 kts | 317° |
| 2026-05-06 10:33 | 45.33310 | 19.64830 | 35986 ft | 413 kts | 317° |
| 2026-05-06 10:33 | 45.37712 | 19.59621 | 35982 ft | 413 kts | 317° |
| 2026-05-06 10:34 | 45.42128 | 19.54372 | 35983 ft | 414 kts | 317° |
| 2026-05-06 10:34 | 45.46562 | 19.49096 | 35978 ft | 414 kts | 317° |
| 2026-05-06 10:35 | 45.50957 | 19.43849 | 35981 ft | 415 kts | 317° |
| 2026-05-06 10:35 | 45.55383 | 19.38549 | 35975 ft | 415 kts | 317° |
| 2026-05-06 10:36 | 45.59818 | 19.33229 | 35975 ft | 415 kts | 317° |
| 2026-05-06 10:36 | 45.64219 | 19.27940 | 35965 ft | 415 kts | 317° |
| 2026-05-06 10:37 | 45.68648 | 19.22618 | 35966 ft | 416 kts | 317° |
| 2026-05-06 10:37 | 45.73082 | 19.17269 | 35970 ft | 417 kts | 317° |
| 2026-05-06 10:38 | 45.77494 | 19.11944 | 35965 ft | 417 kts | 317° |
| 2026-05-06 10:38 | 45.81938 | 19.06558 | 35967 ft | 418 kts | 317° |
| 2026-05-06 10:39 | 45.86355 | 19.01191 | 35966 ft | 418 kts | 317° |
| 2026-05-06 10:39 | 45.90795 | 18.95793 | 35963 ft | 418 kts | 317° |
| 2026-05-06 10:40 | 45.94887 | 18.89924 | 35960 ft | 415 kts | 307° |
| 2026-05-06 10:40 | 45.98544 | 18.83546 | 35959 ft | 415 kts | 307° |
| 2026-05-06 10:41 | 46.02228 | 18.77129 | 35954 ft | 416 kts | 307° |
| 2026-05-06 10:41 | 46.05923 | 18.70674 | 35952 ft | 416 kts | 307° |
| 2026-05-06 10:42 | 46.09603 | 18.64222 | 35957 ft | 417 kts | 307° |
| 2026-05-06 10:42 | 46.13263 | 18.57795 | 35961 ft | 417 kts | 307° |
| 2026-05-06 10:43 | 46.16945 | 18.51306 | 35962 ft | 418 kts | 307° |
| 2026-05-06 10:44 | 46.22464 | 18.41588 | 35961 ft | 418 kts | 307° |
| 2026-05-06 10:44 | 46.26144 | 18.35065 | 35959 ft | 419 kts | 307° |
| 2026-05-06 10:45 | 46.29823 | 18.28512 | 35955 ft | 419 kts | 307° |
| 2026-05-06 10:45 | 46.33513 | 18.21955 | 35956 ft | 419 kts | 307° |
| 2026-05-06 10:46 | 46.37172 | 18.15440 | 35957 ft | 420 kts | 307° |
| 2026-05-06 10:46 | 46.40857 | 18.08864 | 35953 ft | 420 kts | 307° |
| 2026-05-06 10:47 | 46.44537 | 18.02275 | 35956 ft | 420 kts | 307° |
| 2026-05-06 10:47 | 46.48191 | 17.95702 | 35950 ft | 420 kts | 306° |
| 2026-05-06 10:48 | 46.51859 | 17.89089 | 35948 ft | 420 kts | 306° |
| 2026-05-06 10:48 | 46.55542 | 17.82451 | 35947 ft | 421 kts | 307° |
| 2026-05-06 10:49 | 46.59214 | 17.75827 | 35944 ft | 421 kts | 306° |
| 2026-05-06 10:49 | 46.62854 | 17.69218 | 35941 ft | 420 kts | 306° |
| 2026-05-06 10:50 | 46.66508 | 17.62568 | 35938 ft | 420 kts | 306° |
| 2026-05-06 10:50 | 46.70173 | 17.55898 | 35934 ft | 420 kts | 306° |
| 2026-05-06 10:51 | 46.73830 | 17.49221 | 35934 ft | 420 kts | 306° |
| 2026-05-06 10:51 | 46.77471 | 17.42557 | 35931 ft | 420 kts | 306° |
| 2026-05-06 10:52 | 46.81094 | 17.35906 | 35930 ft | 420 kts | 306° |
| 2026-05-06 10:52 | 46.84733 | 17.29222 | 35926 ft | 420 kts | 306° |
| 2026-05-06 10:53 | 46.87757 | 17.23661 | 35925 ft | 420 kts | 306° |
| 2026-05-06 10:53 | 46.91386 | 17.16953 | 35920 ft | 419 kts | 306° |
| 2026-05-06 10:54 | 46.94988 | 17.10293 | 35913 ft | 419 kts | 306° |
| 2026-05-06 10:54 | 46.98604 | 17.03566 | 35909 ft | 419 kts | 306° |
| 2026-05-06 10:55 | 47.02214 | 16.96838 | 35896 ft | 419 kts | 306° |
| 2026-05-06 10:55 | 47.05820 | 16.90105 | 35894 ft | 419 kts | 306° |
| 2026-05-06 10:56 | 47.09408 | 16.83412 | 35894 ft | 419 kts | 306° |
| 2026-05-06 10:56 | 47.13012 | 16.76660 | 35885 ft | 419 kts | 306° |
| 2026-05-06 10:57 | 47.16588 | 16.69935 | 35877 ft | 419 kts | 305° |
| 2026-05-06 10:57 | 47.20177 | 16.63166 | 35875 ft | 419 kts | 306° |
| 2026-05-06 10:58 | 47.23741 | 16.56429 | 35874 ft | 419 kts | 305° |
| 2026-05-06 10:58 | 47.27325 | 16.49630 | 35871 ft | 419 kts | 305° |
| 2026-05-06 10:59 | 47.30952 | 16.42880 | 35868 ft | 420 kts | 307° |
| 2026-05-06 10:59 | 47.34689 | 16.36272 | 35867 ft | 420 kts | 307° |
| 2026-05-06 11:00 | 47.38428 | 16.29702 | 35864 ft | 420 kts | 307° |
| 2026-05-06 11:00 | 47.42160 | 16.23048 | 35861 ft | 420 kts | 307° |
| 2026-05-06 11:01 | 47.45841 | 16.16410 | 35858 ft | 419 kts | 306° |
| 2026-05-06 11:01 | 47.49545 | 16.09724 | 35857 ft | 419 kts | 306° |
| 2026-05-06 11:02 | 47.53246 | 16.03029 | 35858 ft | 419 kts | 306° |
| 2026-05-06 11:02 | 47.56921 | 15.96376 | 35861 ft | 420 kts | 306° |
| 2026-05-06 11:03 | 47.60617 | 15.89666 | 35866 ft | 420 kts | 306° |
| 2026-05-06 11:03 | 47.64323 | 15.82943 | 35862 ft | 420 kts | 306° |
| 2026-05-06 11:04 | 47.67998 | 15.76255 | 35858 ft | 420 kts | 306° |
| 2026-05-06 11:04 | 47.71693 | 15.69497 | 35856 ft | 421 kts | 306° |
| 2026-05-06 11:05 | 47.75380 | 15.62729 | 35858 ft | 421 kts | 306° |
| 2026-05-06 11:05 | 47.79042 | 15.55994 | 35854 ft | 421 kts | 306° |
| 2026-05-06 11:06 | 47.82734 | 15.49207 | 35844 ft | 421 kts | 306° |
| 2026-05-06 11:06 | 47.86421 | 15.42394 | 35841 ft | 422 kts | 306° |
| 2026-05-06 11:07 | 47.90081 | 15.35607 | 35823 ft | 422 kts | 306° |
| 2026-05-06 11:07 | 47.93773 | 15.28759 | 35829 ft | 422 kts | 306° |
| 2026-05-06 11:08 | 47.97427 | 15.21957 | 35827 ft | 423 kts | 306° |
| 2026-05-06 11:08 | 48.01109 | 15.15101 | 35829 ft | 423 kts | 306° |
| 2026-05-06 11:09 | 48.04787 | 15.08235 | 35828 ft | 423 kts | 306° |
| 2026-05-06 11:09 | 48.08462 | 15.01342 | 35832 ft | 423 kts | 305° |
| 2026-05-06 11:10 | 48.12103 | 14.94493 | 35830 ft | 423 kts | 305° |
| 2026-05-06 11:10 | 48.15766 | 14.87584 | 35834 ft | 423 kts | 305° |
| 2026-05-06 11:11 | 48.19412 | 14.80701 | 35833 ft | 422 kts | 305° |
| 2026-05-06 11:11 | 48.23071 | 14.73776 | 35833 ft | 422 kts | 305° |
| 2026-05-06 11:12 | 48.26701 | 14.66887 | 35832 ft | 422 kts | 305° |
| 2026-05-06 11:12 | 48.30339 | 14.59957 | 35835 ft | 422 kts | 304° |
| 2026-05-06 11:13 | 48.33978 | 14.53006 | 35833 ft | 422 kts | 304° |
| 2026-05-06 11:13 | 48.37596 | 14.46083 | 35834 ft | 422 kts | 304° |
| 2026-05-06 11:14 | 48.41218 | 14.39123 | 35832 ft | 422 kts | 304° |
| 2026-05-06 11:14 | 48.44821 | 14.32190 | 35831 ft | 422 kts | 304° |
| 2026-05-06 11:15 | 48.48448 | 14.25199 | 35833 ft | 422 kts | 304° |
| 2026-05-06 11:15 | 48.52070 | 14.18194 | 35835 ft | 422 kts | 304° |
| 2026-05-06 11:16 | 48.55666 | 14.11224 | 35834 ft | 422 kts | 304° |
| 2026-05-06 11:16 | 48.59274 | 14.04207 | 35837 ft | 423 kts | 304° |
| 2026-05-06 11:17 | 48.62881 | 13.97184 | 35830 ft | 422 kts | 304° |
| 2026-05-06 11:17 | 48.66489 | 13.90136 | 35828 ft | 423 kts | 303° |
| 2026-05-06 11:18 | 48.70070 | 13.83131 | 35827 ft | 423 kts | 303° |
| 2026-05-06 11:18 | 48.73663 | 13.76072 | 35828 ft | 423 kts | 303° |
| 2026-05-06 11:19 | 48.77129 | 13.68901 | 35827 ft | 420 kts | 298° |
| 2026-05-06 11:19 | 48.80257 | 13.61406 | 35832 ft | 420 kts | 298° |
| 2026-05-06 11:20 | 48.83373 | 13.53908 | 35827 ft | 420 kts | 298° |
| 2026-05-06 11:20 | 48.86468 | 13.46451 | 35830 ft | 420 kts | 298° |
| 2026-05-06 11:21 | 48.89573 | 13.38934 | 35827 ft | 420 kts | 297° |
| 2026-05-06 11:21 | 48.92673 | 13.31397 | 35829 ft | 420 kts | 297° |
| 2026-05-06 11:22 | 48.95750 | 13.23907 | 35823 ft | 419 kts | 297° |
| 2026-05-06 11:22 | 48.98856 | 13.16355 | 35826 ft | 420 kts | 297° |
| 2026-05-06 11:23 | 49.01947 | 13.08814 | 35821 ft | 420 kts | 297° |
| 2026-05-06 11:23 | 49.05037 | 13.01245 | 35827 ft | 419 kts | 297° |
| 2026-05-06 11:24 | 49.08095 | 12.93723 | 35825 ft | 419 kts | 297° |
| 2026-05-06 11:24 | 49.11170 | 12.86129 | 35823 ft | 420 kts | 297° |
| 2026-05-06 11:25 | 49.14222 | 12.78577 | 35823 ft | 420 kts | 297° |
| 2026-05-06 11:25 | 49.17288 | 12.70980 | 35830 ft | 420 kts | 297° |
| 2026-05-06 11:26 | 49.20350 | 12.63366 | 35826 ft | 420 kts | 297° |
| 2026-05-06 11:26 | 49.23398 | 12.55772 | 35826 ft | 420 kts | 296° |
| 2026-05-06 11:27 | 49.26449 | 12.48131 | 35827 ft | 420 kts | 296° |
| 2026-05-06 11:27 | 49.29472 | 12.40533 | 35825 ft | 420 kts | 296° |
| 2026-05-06 11:28 | 49.32516 | 12.32876 | 35822 ft | 420 kts | 296° |
| 2026-05-06 11:28 | 49.35563 | 12.25204 | 35821 ft | 420 kts | 296° |
| 2026-05-06 11:29 | 49.38586 | 12.17555 | 35823 ft | 420 kts | 296° |
| 2026-05-06 11:29 | 49.41614 | 12.09844 | 35818 ft | 421 kts | 296° |
| 2026-05-06 11:30 | 49.44618 | 12.02179 | 35811 ft | 421 kts | 296° |
| 2026-05-06 11:30 | 49.47678 | 11.94494 | 35811 ft | 424 kts | 301° |
| 2026-05-06 11:31 | 49.51217 | 11.87193 | 35809 ft | 425 kts | 302° |
| 2026-05-06 11:31 | 49.54757 | 11.79876 | 35811 ft | 425 kts | 301° |
| 2026-05-06 11:32 | 49.58263 | 11.72593 | 35816 ft | 425 kts | 301° |
| 2026-05-06 11:32 | 49.61792 | 11.65249 | 35808 ft | 425 kts | 301° |
| 2026-05-06 11:33 | 49.65294 | 11.57940 | 35809 ft | 426 kts | 301° |
| 2026-05-06 11:33 | 49.68817 | 11.50559 | 35809 ft | 426 kts | 301° |
| 2026-05-06 11:34 | 49.72330 | 11.43186 | 35810 ft | 426 kts | 301° |
| 2026-05-06 11:34 | 49.75839 | 11.35803 | 35814 ft | 426 kts | 301° |
| 2026-05-06 11:35 | 49.79327 | 11.28433 | 35816 ft | 426 kts | 301° |
| 2026-05-06 11:35 | 49.82835 | 11.21008 | 35818 ft | 426 kts | 301° |
| 2026-05-06 11:36 | 49.86340 | 11.13570 | 35820 ft | 426 kts | 301° |
| 2026-05-06 11:36 | 49.89820 | 11.06168 | 35818 ft | 426 kts | 301° |
| 2026-05-06 11:37 | 49.93311 | 10.98727 | 35816 ft | 426 kts | 301° |
| 2026-05-06 11:37 | 49.96775 | 10.91316 | 35810 ft | 426 kts | 300° |
| 2026-05-06 11:38 | 49.99686 | 10.85055 | 35802 ft | 426 kts | 300° |
| 2026-05-06 11:38 | 50.03141 | 10.77613 | 35799 ft | 426 kts | 300° |
| 2026-05-06 11:39 | 50.06619 | 10.70118 | 35787 ft | 427 kts | 300° |
| 2026-05-06 11:39 | 50.10099 | 10.62599 | 35784 ft | 427 kts | 300° |
| 2026-05-06 11:40 | 50.13556 | 10.55104 | 35785 ft | 428 kts | 300° |
| 2026-05-06 11:40 | 50.17035 | 10.47542 | 35786 ft | 429 kts | 300° |
| 2026-05-06 11:41 | 50.20505 | 10.39955 | 35781 ft | 429 kts | 300° |
| 2026-05-06 11:41 | 50.23932 | 10.32387 | 35784 ft | 429 kts | 300° |
| 2026-05-06 11:42 | 50.27360 | 10.24711 | 35780 ft | 430 kts | 300° |
| 2026-05-06 11:42 | 50.30779 | 10.17018 | 35783 ft | 430 kts | 300° |
| 2026-05-06 11:43 | 50.34184 | 10.09379 | 35779 ft | 430 kts | 300° |
| 2026-05-06 11:43 | 50.37601 | 10.01691 | 35780 ft | 430 kts | 300° |
| 2026-05-06 11:44 | 50.42709 | 9.90146 | 35788 ft | 430 kts | 300° |
| 2026-05-06 11:44 | 50.46119 | 9.82404 | 35780 ft | 430 kts | 300° |
| 2026-05-06 11:45 | 50.49511 | 9.74654 | 35790 ft | 430 kts | 300° |
| 2026-05-06 11:45 | 50.52907 | 9.66896 | 35783 ft | 430 kts | 300° |
| 2026-05-06 11:46 | 50.56288 | 9.59170 | 35785 ft | 430 kts | 300° |
| 2026-05-06 11:46 | 50.59680 | 9.51405 | 35779 ft | 430 kts | 300° |
| 2026-05-06 11:47 | 50.63039 | 9.43663 | 35782 ft | 430 kts | 300° |
| 2026-05-06 11:47 | 50.66421 | 9.35819 | 35850 ft | 431 kts | 300° |
| 2026-05-06 11:48 | 50.69780 | 9.28037 | 35763 ft | 432 kts | 300° |
| 2026-05-06 11:48 | 50.73164 | 9.20186 | 35759 ft | 433 kts | 300° |
| 2026-05-06 11:49 | 50.76558 | 9.12294 | 35759 ft | 433 kts | 300° |
| 2026-05-06 11:49 | 50.79916 | 9.04425 | 35762 ft | 434 kts | 300° |
| 2026-05-06 11:50 | 50.83289 | 8.96503 | 35765 ft | 435 kts | 301° |
| 2026-05-06 11:50 | 50.86932 | 8.88815 | 35770 ft | 437 kts | 305° |
| 2026-05-06 11:51 | 50.90772 | 8.81403 | 35776 ft | 437 kts | 306° |
| 2026-05-06 11:51 | 50.92711 | 8.77672 | 35654 ft | 439 kts | 306° |
| 2026-05-06 11:51 | 50.94627 | 8.73925 | 35265 ft | 435 kts | 305° |
| 2026-05-06 11:52 | 50.96516 | 8.70159 | 34732 ft | 432 kts | 304° |
| 2026-05-06 11:52 | 50.98367 | 8.66416 | 34219 ft | 430 kts | 304° |
| 2026-05-06 11:52 | 51.00213 | 8.62683 | 33685 ft | 428 kts | 306° |
| 2026-05-06 11:52 | 51.02268 | 8.59333 | 33115 ft | 429 kts | 316° |
| 2026-05-06 11:53 | 51.04612 | 8.56397 | 32291 ft | 432 kts | 316° |
| 2026-05-06 11:53 | 51.06531 | 8.52737 | 31167 ft | 432 kts | 296° |
| 2026-05-06 11:53 | 51.07914 | 8.48551 | 30370 ft | 421 kts | 296° |
| 2026-05-06 11:53 | 51.09297 | 8.44485 | 29468 ft | 415 kts | 298° |
| 2026-05-06 11:54 | 51.10710 | 8.40513 | 28490 ft | 408 kts | 299° |
| 2026-05-06 11:54 | 51.12133 | 8.36632 | 27547 ft | 403 kts | 299° |
| 2026-05-06 11:54 | 51.13549 | 8.32815 | 26658 ft | 397 kts | 300° |
| 2026-05-06 11:54 | 51.14923 | 8.29118 | 26109 ft | 384 kts | 300° |
| 2026-05-06 11:55 | 51.16252 | 8.25514 | 25673 ft | 369 kts | 299° |
| 2026-05-06 11:55 | 51.17523 | 8.22042 | 25236 ft | 356 kts | 299° |
| 2026-05-06 11:55 | 51.18745 | 8.18680 | 24816 ft | 343 kts | 299° |
| 2026-05-06 11:55 | 51.19918 | 8.15432 | 24396 ft | 333 kts | 299° |
| 2026-05-06 11:56 | 51.21066 | 8.12236 | 23970 ft | 332 kts | 299° |
| 2026-05-06 11:56 | 51.22214 | 8.09039 | 23558 ft | 332 kts | 299° |
| 2026-05-06 11:56 | 51.23367 | 8.05844 | 23093 ft | 332 kts | 299° |
| 2026-05-06 11:56 | 51.24500 | 8.02698 | 22667 ft | 330 kts | 299° |
| 2026-05-06 11:57 | 51.25656 | 7.99485 | 22234 ft | 328 kts | 299° |
| 2026-05-06 11:57 | 51.26776 | 7.96372 | 21836 ft | 327 kts | 298° |
| 2026-05-06 11:57 | 51.27911 | 7.93212 | 21441 ft | 327 kts | 298° |
| 2026-05-06 11:57 | 51.29042 | 7.90060 | 21027 ft | 327 kts | 298° |
| 2026-05-06 11:58 | 51.30170 | 7.86911 | 20634 ft | 326 kts | 298° |
| 2026-05-06 11:58 | 51.31289 | 7.83771 | 20232 ft | 325 kts | 297° |
| 2026-05-06 11:58 | 51.32407 | 7.80625 | 19841 ft | 325 kts | 297° |
| 2026-05-06 11:58 | 51.33527 | 7.77466 | 19430 ft | 326 kts | 297° |
| 2026-05-06 11:59 | 51.34650 | 7.74298 | 19026 ft | 328 kts | 297° |
| 2026-05-06 11:59 | 51.35786 | 7.71103 | 18617 ft | 332 kts | 297° |
| 2026-05-06 11:59 | 51.36924 | 7.67905 | 18221 ft | 335 kts | 297° |
| 2026-05-06 11:59 | 51.38076 | 7.64656 | 17781 ft | 335 kts | 297° |
| 2026-05-06 12:00 | 51.39220 | 7.61429 | 17369 ft | 332 kts | 297° |
| 2026-05-06 12:00 | 51.40353 | 7.58208 | 16966 ft | 329 kts | 294° |
| 2026-05-06 12:00 | 51.41131 | 7.54808 | 16568 ft | 322 kts | 279° |
| 2026-05-06 12:00 | 51.41329 | 7.51280 | 16174 ft | 317 kts | 265° |
| 2026-05-06 12:01 | 51.40985 | 7.47875 | 15793 ft | 312 kts | 253° |
| 2026-05-06 12:01 | 51.40401 | 7.44519 | 15413 ft | 310 kts | 253° |
| 2026-05-06 12:01 | 51.39831 | 7.41196 | 15040 ft | 309 kts | 253° |
| 2026-05-06 12:01 | 51.39267 | 7.37884 | 14670 ft | 307 kts | 253° |
| 2026-05-06 12:02 | 51.38701 | 7.34584 | 14302 ft | 306 kts | 253° |
| 2026-05-06 12:02 | 51.38137 | 7.31311 | 13936 ft | 304 kts | 253° |
| 2026-05-06 12:02 | 51.37574 | 7.28052 | 13557 ft | 304 kts | 253° |
| 2026-05-06 12:02 | 51.37009 | 7.24798 | 13157 ft | 302 kts | 253° |
| 2026-05-06 12:03 | 51.36454 | 7.21620 | 12781 ft | 299 kts | 253° |
| 2026-05-06 12:03 | 51.35922 | 7.18567 | 12431 ft | 297 kts | 253° |
| 2026-05-06 12:03 | 51.35369 | 7.15387 | 12062 ft | 295 kts | 253° |
| 2026-05-06 12:03 | 51.34819 | 7.12204 | 11677 ft | 294 kts | 253° |
| 2026-05-06 12:04 | 51.34281 | 7.09105 | 11315 ft | 292 kts | 253° |
| 2026-05-06 12:04 | 51.33733 | 7.05980 | 10937 ft | 291 kts | 253° |
| 2026-05-06 12:04 | 51.33184 | 7.02862 | 10560 ft | 289 kts | 253° |
| 2026-05-06 12:04 | 51.32636 | 6.99769 | 10176 ft | 288 kts | 253° |
| 2026-05-06 12:05 | 51.32097 | 6.96722 | 9785 ft | 287 kts | 253° |
| 2026-05-06 12:05 | 51.31559 | 6.93672 | 9474 ft | 284 kts | 253° |
| 2026-05-06 12:05 | 51.31022 | 6.90623 | 9104 ft | 282 kts | 253° |
| 2026-05-06 12:05 | 51.30487 | 6.87592 | 8673 ft | 282 kts | 253° |
| 2026-05-06 12:06 | 51.29952 | 6.84569 | 8221 ft | 281 kts | 253° |
| 2026-05-06 12:06 | 51.29445 | 6.81710 | 7803 ft | 281 kts | 253° |
| 2026-05-06 12:06 | 51.28926 | 6.78793 | 7653 ft | 270 kts | 253° |
| 2026-05-06 12:06 | 51.28421 | 6.75968 | 7474 ft | 261 kts | 254° |
| 2026-05-06 12:07 | 51.27897 | 6.73119 | 6779 ft | 273 kts | 253° |
| 2026-05-06 12:07 | 51.27324 | 6.70185 | 6282 ft | 277 kts | 252° |
| 2026-05-06 12:07 | 51.26737 | 6.67255 | 5895 ft | 277 kts | 252° |
| 2026-05-06 12:07 | 51.26148 | 6.64335 | 5550 ft | 275 kts | 253° |
| 2026-05-06 12:08 | 51.25569 | 6.61459 | 5174 ft | 274 kts | 253° |
| 2026-05-06 12:08 | 51.24986 | 6.58564 | 4756 ft | 273 kts | 253° |
| 2026-05-06 12:08 | 51.24410 | 6.55688 | 4343 ft | 273 kts | 254° |
| 2026-05-06 12:08 | 51.23841 | 6.52843 | 4134 ft | 264 kts | 254° |
| 2026-05-06 12:09 | 51.23306 | 6.50159 | 4012 ft | 242 kts | 255° |
| 2026-05-06 12:09 | 51.22738 | 6.47736 | 3936 ft | 229 kts | 240° |
| 2026-05-06 12:09 | 51.21642 | 6.45920 | 3874 ft | 230 kts | 211° |
| 2026-05-06 12:09 | 51.20162 | 6.45200 | 3811 ft | 217 kts | 181° |
| 2026-05-06 12:10 | 51.18751 | 6.45669 | 3744 ft | 202 kts | 152° |
| 2026-05-06 12:10 | 51.17669 | 6.46985 | 3706 ft | 197 kts | 127° |
| 2026-05-06 12:10 | 51.17021 | 6.48869 | 3661 ft | 193 kts | 102° |
| 2026-05-06 12:10 | 51.16904 | 6.50966 | 3627 ft | 189 kts | 78° |
| 2026-05-06 12:11 | 51.17311 | 6.52917 | 3576 ft | 185 kts | 55° |
| 2026-05-06 12:11 | 51.18068 | 6.54567 | 3420 ft | 185 kts | 49° |
| 2026-05-06 12:11 | 51.18854 | 6.56191 | 3197 ft | 186 kts | 50° |
| 2026-05-06 12:11 | 51.19647 | 6.57836 | 2975 ft | 187 kts | 50° |
| 2026-05-06 12:12 | 51.20435 | 6.59477 | 2706 ft | 185 kts | 50° |
| 2026-05-06 12:12 | 51.21191 | 6.61053 | 2446 ft | 177 kts | 50° |
| 2026-05-06 12:12 | 51.21931 | 6.62596 | 2197 ft | 168 kts | 50° |
| 2026-05-06 12:12 | 51.22608 | 6.64010 | 1976 ft | 156 kts | 49° |
| 2026-05-06 12:13 | 51.23247 | 6.65343 | 1776 ft | 148 kts | 49° |
| 2026-05-06 12:13 | 51.23860 | 6.66623 | 1581 ft | 143 kts | 49° |
| 2026-05-06 12:13 | 51.24461 | 6.67877 | 1390 ft | 141 kts | 49° |
| 2026-05-06 12:13 | 51.25054 | 6.69116 | 1186 ft | 140 kts | 49° |
| 2026-05-06 12:14 | 51.25650 | 6.70362 | 981 ft | 142 kts | 50° |
| 2026-05-06 12:14 | 51.26248 | 6.71612 | 760 ft | 141 kts | 49° |
| 2026-05-06 12:14 | 51.26839 | 6.72848 | 589 ft | 141 kts | 49° |
| 2026-05-06 12:14 | 51.27430 | 6.74084 | 398 ft | 140 kts | 48° |
| 2026-05-06 12:15 | 51.28025 | 6.75329 | 212 ft | 140 kts | 49° |
| 2026-05-06 12:15 | 51.28588 | 6.76510 | 125 ft | 119 kts | 53° |
| 2026-05-06 12:15 | 51.28983 | 6.77342 | 129 ft | 69 kts | 53° |
| 2026-05-06 12:15 | 51.29195 | 6.77787 | 133 ft | 39 kts | 52° |
| 2026-05-06 12:16 | 51.29298 | 6.78051 | 139 ft | 18 kts | 85° |
| 2026-05-06 12:16 | 51.29256 | 6.78189 | 137 ft | 6 kts | 148° |
| 2026-05-06 12:16 | 51.29226 | 6.78216 | 137 ft | 3 kts | 164° |
| 2026-05-06 12:16 | 51.29201 | 6.78212 | 136 ft | 5 kts | 193° |
| 2026-05-06 12:17 | 51.29162 | 6.78182 | 135 ft | 7 kts | 221° |
| 2026-05-06 12:17 | 51.29125 | 6.78109 | 133 ft | 12 kts | 233° |
| 2026-05-06 12:17 | 51.29056 | 6.77955 | 128 ft | 20 kts | 234° |
| 2026-05-06 12:17 | 51.28968 | 6.77787 | 128 ft | 20 kts | 230° |
| 2026-05-06 12:18 | 51.28885 | 6.77610 | 129 ft | 20 kts | 233° |
| 2026-05-06 12:18 | 51.28808 | 6.77445 | 126 ft | 17 kts | 233° |
| 2026-05-06 12:18 | 51.28741 | 6.77303 | 126 ft | 16 kts | 232° |
| 2026-05-06 12:18 | 51.28666 | 6.77146 | 126 ft | 17 kts | 233° |
| 2026-05-06 12:19 | 51.28601 | 6.77011 | 126 ft | 14 kts | 233° |
| 2026-05-06 12:19 | 51.28534 | 6.76871 | 123 ft | 20 kts | 231° |
| 2026-05-06 12:19 | 51.28451 | 6.76696 | 125 ft | 19 kts | 232° |
| 2026-05-06 12:19 | 51.28381 | 6.76549 | 125 ft | 14 kts | 232° |
| 2026-05-06 12:20 | 51.28330 | 6.76443 | 124 ft | 10 kts | 233° |
| 2026-05-06 12:20 | 51.28282 | 6.76341 | 125 ft | 12 kts | 232° |
| 2026-05-06 12:20 | 51.28234 | 6.76243 | 128 ft | 11 kts | 222° |
| 2026-05-06 12:20 | 51.28167 | 6.76272 | 126 ft | 12 kts | 138° |
| 2026-05-06 12:21 | 51.28126 | 6.76364 | 124 ft | 8 kts | 122° |
| 2026-05-06 12:21 | 51.28115 | 6.76387 | 127 ft | 2 kts | 128° |
| 2026-05-06 12:21 | 51.28091 | 6.76388 | 127 ft | 6 kts | 197° |
| 2026-05-06 12:21 | 51.28068 | 6.76381 | 126 ft | 3 kts | 189° |
| 2026-05-06 12:22 | 51.28055 | 6.76375 | 126 ft | 3 kts | 197° |
| 2026-05-06 12:22 | 51.28040 | 6.76367 | 125 ft | 2 kts | 197° |
| 2026-05-06 12:22 | 51.28037 | 6.76366 | 126 ft | 0 kts | 197° |